createdAt,value
2018-02-07T00:00:40.436Z,29.90
2018-02-07T00:03:08.777Z,30.20
2018-02-07T00:05:37.142Z,29.17
2018-02-07T00:08:05.494Z,29.37
2018-02-07T00:10:33.817Z,31.37
2018-02-07T00:13:02.178Z,32.53
2018-02-07T00:15:30.500Z,29.50
2018-02-07T00:17:58.810Z,29.40
2018-02-07T00:20:27.157Z,31.43
2018-02-07T00:22:55.519Z,31.13
2018-02-07T00:25:23.870Z,31.30
2018-02-07T00:27:53.039Z,30.80
2018-02-07T00:30:21.395Z,30.70
2018-02-07T00:32:49.714Z,29.77
2018-02-07T00:35:18.110Z,30.70
2018-02-07T00:37:46.430Z,30.47
2018-02-07T00:40:14.822Z,28.10
2018-02-07T00:42:43.160Z,31.57
2018-02-07T00:45:11.506Z,29.93
2018-02-07T00:47:39.858Z,29.60
2018-02-07T00:50:08.186Z,30.77
2018-02-07T00:52:36.533Z,30.50
2018-02-07T00:55:04.941Z,31.77
2018-02-07T00:57:33.293Z,31.77
2018-02-07T01:00:01.625Z,31.20
2018-02-07T01:02:29.971Z,32.00
2018-02-07T01:04:58.295Z,32.73
2018-02-07T01:07:26.657Z,33.80
2018-02-07T01:09:54.980Z,32.80
2018-02-07T01:12:23.306Z,33.20
2018-02-07T01:14:51.655Z,32.73
2018-02-07T01:17:19.976Z,31.97
2018-02-07T01:19:48.310Z,32.00
2018-02-07T01:22:16.641Z,30.47
2018-02-07T01:24:45.080Z,33.20
2018-02-07T01:27:13.406Z,30.70
2018-02-07T01:29:41.840Z,32.13
2018-02-07T01:32:10.256Z,31.00
2018-02-07T01:34:38.633Z,31.93
2018-02-07T01:37:06.930Z,34.57
2018-02-07T01:39:35.253Z,31.50
2018-02-07T01:42:03.607Z,33.07
2018-02-07T01:44:31.984Z,32.20
2018-02-07T01:47:00.327Z,32.97
2018-02-07T01:49:28.647Z,32.83
2018-02-07T01:51:56.998Z,33.00
2018-02-07T01:54:25.322Z,33.57
2018-02-07T01:56:53.666Z,33.30
2018-02-07T01:59:22.030Z,33.20
2018-02-07T02:01:50.373Z,33.93
2018-02-07T02:04:18.707Z,33.30
2018-02-07T02:06:47.062Z,31.03
2018-02-07T02:09:15.382Z,32.90
2018-02-07T02:11:43.705Z,33.97
2018-02-07T02:14:12.050Z,33.77
2018-02-07T02:16:40.375Z,33.87
2018-02-07T02:19:08.729Z,33.27
2018-02-07T02:21:37.061Z,31.80
2018-02-07T02:24:05.424Z,33.33
2018-02-07T02:26:33.756Z,32.23
2018-02-07T02:29:02.102Z,36.20
2018-02-07T02:31:30.436Z,33.97
2018-02-07T02:33:58.796Z,35.07
2018-02-07T02:36:38.923Z,36.07
2018-02-07T02:39:07.283Z,35.23
2018-02-07T02:41:35.619Z,36.13
2018-02-07T02:44:03.940Z,37.97
2018-02-07T02:46:32.324Z,40.60
2018-02-07T02:49:00.637Z,35.40
2018-02-07T02:51:28.996Z,39.70
2018-02-07T02:53:57.320Z,37.17
2018-02-07T02:56:25.763Z,35.90
2018-02-07T02:58:54.079Z,37.33
2018-02-07T03:01:22.442Z,38.60
2018-02-07T03:03:50.867Z,37.30
2018-02-07T03:06:19.190Z,35.50
2018-02-07T03:08:47.534Z,36.70
2018-02-07T03:11:15.858Z,37.03
2018-02-07T03:13:44.202Z,38.37
2018-02-07T03:16:12.522Z,37.30
2018-02-07T03:18:40.873Z,39.23
2018-02-07T03:21:09.202Z,40.13
2018-02-07T03:23:37.561Z,42.83
2018-02-07T03:26:05.889Z,41.70
2018-02-07T03:28:34.261Z,39.90
2018-02-07T03:31:02.595Z,40.70
2018-02-07T03:33:30.937Z,44.03
2018-02-07T03:35:59.277Z,40.00
2018-02-07T03:38:27.663Z,40.30
2018-02-07T03:40:55.990Z,42.17
2018-02-07T03:43:24.322Z,41.53
2018-02-07T03:45:52.678Z,43.20
2018-02-07T03:48:21.062Z,43.80
2018-02-07T03:50:49.430Z,43.30
2018-02-07T03:53:17.758Z,61.20
2018-02-07T03:55:46.110Z,42.37
2018-02-07T03:58:14.444Z,42.80
2018-02-07T04:00:42.809Z,43.27
2018-02-07T04:03:11.165Z,46.60
2018-02-07T04:05:39.611Z,44.43
2018-02-07T04:08:07.951Z,44.60
2018-02-07T04:10:36.361Z,43.87
2018-02-07T04:13:04.717Z,43.33
2018-02-07T04:15:33.049Z,45.40
2018-02-07T04:18:01.391Z,43.70
2018-02-07T04:20:29.731Z,44.23
2018-02-07T04:22:58.090Z,46.37
2018-02-07T04:25:26.415Z,45.10
2018-02-07T04:27:54.815Z,45.97
2018-02-07T04:30:23.154Z,48.17
2018-02-07T04:32:51.604Z,47.27
2018-02-07T04:35:19.914Z,46.93
2018-02-07T04:37:48.239Z,47.90
2018-02-07T04:40:16.586Z,45.57
2018-02-07T04:42:44.974Z,45.97
2018-02-07T04:45:13.342Z,45.87
2018-02-07T04:47:41.677Z,47.83
2018-02-07T04:50:10.029Z,45.37
2018-02-07T04:52:38.353Z,44.37
2018-02-07T04:55:06.737Z,44.97
2018-02-07T04:57:35.076Z,46.47
2018-02-07T05:00:03.763Z,46.03
2018-02-07T05:02:32.208Z,47.80
2018-02-07T05:05:00.683Z,47.57
2018-02-07T05:07:29.042Z,49.67
2018-02-07T05:09:57.367Z,46.73
2018-02-07T05:12:25.722Z,47.70
2018-02-07T05:14:54.054Z,46.67
2018-02-07T05:17:22.418Z,48.87
2018-02-07T05:19:50.742Z,50.23
2018-02-07T05:22:19.098Z,47.67
2018-02-07T05:24:47.430Z,46.27
2018-02-07T05:27:15.789Z,46.97
2018-02-07T05:29:44.125Z,44.83
2018-02-07T05:32:13.362Z,43.40
2018-02-07T05:34:41.735Z,45.50
2018-02-07T05:37:10.065Z,46.03
2018-02-07T05:39:38.451Z,47.90
2018-02-07T05:42:06.781Z,46.90
2018-02-07T05:44:35.127Z,42.90
2018-02-07T05:47:03.478Z,44.33
2018-02-07T05:49:31.830Z,42.50
2018-02-07T05:52:00.155Z,43.80
2018-02-07T05:54:28.511Z,44.77
2018-02-07T05:56:56.842Z,44.20
2018-02-07T05:59:25.314Z,48.80
2018-02-07T06:01:53.650Z,46.30
2018-02-07T06:04:21.978Z,44.97
2018-02-07T06:06:50.337Z,46.63
2018-02-07T06:09:18.719Z,48.07
2018-02-07T06:11:47.085Z,46.57
2018-02-07T06:14:15.431Z,47.87
2018-02-07T06:16:43.783Z,51.77
2018-02-07T06:19:12.111Z,48.23
2018-02-07T06:21:40.515Z,47.00
2018-02-07T06:24:08.861Z,51.17
2018-02-07T06:26:37.223Z,49.80
2018-02-07T06:29:05.551Z,47.43
2018-02-07T06:31:33.919Z,51.10
2018-02-07T06:34:02.258Z,46.83
2018-02-07T06:36:30.594Z,48.77
2018-02-07T06:38:59.024Z,45.03
2018-02-07T06:41:27.378Z,47.63
2018-02-07T06:43:55.742Z,46.37
2018-02-07T06:46:24.094Z,46.57
2018-02-07T06:48:52.467Z,49.80
2018-02-07T06:51:20.893Z,46.27
2018-02-07T06:53:49.231Z,44.73
2018-02-07T06:56:17.577Z,45.07
2018-02-07T06:58:45.989Z,45.10
2018-02-07T07:01:14.323Z,48.33
2018-02-07T07:03:42.666Z,45.73
2018-02-07T07:06:11.019Z,44.30
2018-02-07T07:08:39.427Z,45.67
2018-02-07T07:11:07.746Z,46.63
2018-02-07T07:13:36.092Z,46.90
2018-02-07T07:16:04.426Z,46.87
2018-02-07T07:18:32.776Z,49.27
2018-02-07T07:21:01.229Z,47.20
2018-02-07T07:23:29.581Z,47.10
2018-02-07T07:25:58.291Z,44.43
2018-02-07T07:28:26.816Z,46.50
2018-02-07T07:30:55.166Z,46.70
2018-02-07T07:33:23.495Z,46.27
2018-02-07T07:35:51.849Z,47.23
2018-02-07T07:38:20.189Z,45.00
2018-02-07T07:40:48.635Z,46.80
2018-02-07T07:43:16.987Z,45.90
2018-02-07T07:45:45.391Z,47.63
2018-02-07T07:48:13.754Z,45.23
2018-02-07T07:50:42.101Z,45.13
2018-02-07T07:53:10.522Z,45.93
2018-02-07T07:55:38.870Z,47.20
2018-02-07T07:58:07.226Z,44.40
2018-02-07T08:00:35.562Z,44.37
2018-02-07T08:03:03.954Z,48.67
2018-02-07T08:05:32.260Z,46.00
2018-02-07T08:08:00.590Z,47.40
2018-02-07T08:10:28.956Z,46.97
2018-02-07T08:12:57.382Z,43.10
2018-02-07T08:15:25.725Z,47.10
2018-02-07T08:17:54.057Z,45.80
2018-02-07T08:20:22.406Z,48.37
2018-02-07T08:22:50.752Z,45.27
2018-02-07T08:25:19.106Z,48.20
2018-02-07T08:27:47.469Z,50.87
2018-02-07T08:30:15.849Z,46.37
2018-02-07T08:32:44.264Z,46.57
2018-02-07T08:35:12.656Z,48.40
2018-02-07T08:37:40.986Z,48.20
2018-02-07T08:40:09.328Z,47.60
2018-02-07T08:42:37.702Z,48.40
2018-02-07T08:45:06.034Z,46.10
2018-02-07T08:47:34.393Z,42.67
2018-02-07T08:50:02.717Z,44.77
2018-02-07T08:52:31.071Z,48.43
2018-02-07T08:54:59.503Z,47.60
2018-02-07T08:57:27.841Z,45.87
2018-02-07T08:59:56.169Z,45.53
2018-02-07T09:02:24.537Z,45.53
2018-02-07T09:04:52.977Z,47.80
2018-02-07T09:07:21.285Z,43.97
2018-02-07T09:09:49.606Z,44.93
2018-02-07T09:12:18.050Z,42.70
2018-02-07T09:14:46.362Z,43.77
2018-02-07T09:17:14.706Z,43.43
2018-02-07T09:19:43.054Z,44.23
2018-02-07T09:22:11.382Z,41.70
2018-02-07T09:24:39.736Z,45.07
2018-02-07T09:27:08.062Z,41.40
2018-02-07T09:29:36.424Z,45.87
2018-02-07T09:32:04.771Z,44.83
2018-02-07T09:34:33.351Z,41.20
2018-02-07T09:37:02.283Z,41.80
2018-02-07T09:39:30.633Z,42.70
2018-02-07T09:41:58.973Z,45.53
2018-02-07T09:44:27.349Z,43.53
2018-02-07T09:46:55.676Z,42.73
2018-02-07T09:49:24.012Z,43.67
2018-02-07T09:51:52.377Z,43.40
2018-02-07T09:54:20.722Z,44.40
2018-02-07T09:56:49.132Z,44.07
2018-02-07T09:59:17.462Z,41.57
2018-02-07T10:01:45.821Z,43.73
2018-02-07T10:04:14.158Z,44.30
2018-02-07T10:06:42.501Z,44.07
2018-02-07T10:09:10.847Z,41.90
2018-02-07T10:11:39.232Z,44.53
2018-02-07T10:14:07.559Z,43.80
2018-02-07T10:16:35.933Z,46.77
2018-02-07T10:19:04.272Z,47.07
2018-02-07T10:21:32.605Z,45.70
2018-02-07T10:24:00.971Z,42.77
2018-02-07T10:26:29.369Z,46.63
2018-02-07T10:28:57.743Z,42.37
2018-02-07T10:31:26.089Z,44.60
2018-02-07T10:33:54.446Z,43.40
2018-02-07T10:36:22.769Z,43.27
2018-02-07T10:38:51.129Z,44.87
2018-02-07T10:41:19.450Z,46.70
2018-02-07T10:43:47.838Z,42.57
2018-02-07T10:46:16.180Z,43.43
2018-02-07T10:48:44.499Z,42.87
2018-02-07T10:51:12.911Z,46.33
2018-02-07T10:53:41.238Z,45.03
2018-02-07T10:56:09.633Z,43.00
2018-02-07T10:58:38.006Z,43.67
2018-02-07T11:01:06.389Z,43.57
2018-02-07T11:03:34.718Z,43.13
2018-02-07T11:06:03.085Z,45.10
2018-02-07T11:08:31.415Z,44.40
2018-02-07T11:10:59.778Z,44.23
2018-02-07T11:13:28.153Z,42.30
2018-02-07T11:15:56.476Z,42.50
2018-02-07T11:18:24.826Z,41.47
2018-02-07T11:20:53.196Z,43.80
2018-02-07T11:23:21.534Z,40.50
2018-02-07T11:25:49.874Z,41.70
2018-02-07T11:28:18.218Z,43.17
2018-02-07T11:30:46.546Z,41.17
2018-02-07T11:33:14.895Z,44.97
2018-02-07T11:35:43.220Z,43.47
2018-02-07T11:38:11.561Z,45.33
2018-02-07T11:40:39.887Z,42.57
2018-02-07T11:43:08.237Z,42.17
2018-02-07T11:45:36.576Z,45.07
2018-02-07T11:48:04.960Z,42.87
2018-02-07T11:50:33.408Z,43.30
2018-02-07T11:53:01.824Z,43.47
2018-02-07T11:55:30.266Z,42.67
2018-02-07T11:57:58.594Z,42.90
2018-02-07T12:00:26.948Z,43.33
2018-02-07T12:02:55.330Z,45.07
2018-02-07T12:05:23.684Z,44.80
2018-02-07T12:07:51.998Z,44.27
2018-02-07T12:10:20.358Z,44.00
2018-02-07T12:12:48.693Z,43.53
2018-02-07T12:15:17.040Z,44.20
2018-02-07T12:17:45.380Z,44.20
2018-02-07T12:20:13.754Z,45.77
2018-02-07T12:22:42.993Z,47.00
2018-02-07T12:25:11.315Z,44.47
2018-02-07T12:27:39.667Z,43.10
2018-02-07T12:30:08.203Z,45.03
2018-02-07T12:32:36.657Z,44.40
2018-02-07T12:35:04.993Z,44.53
2018-02-07T12:37:33.334Z,45.90
2018-02-07T12:40:01.672Z,46.57
2018-02-07T12:42:30.024Z,46.13
2018-02-07T12:44:58.372Z,46.07
2018-02-07T12:47:26.754Z,45.70
2018-02-07T12:49:55.087Z,46.03
2018-02-07T12:52:23.430Z,46.03
2018-02-07T12:54:51.777Z,45.80
2018-02-07T12:57:20.115Z,47.10
2018-02-07T12:59:48.479Z,44.40
2018-02-07T13:02:16.823Z,45.50
2018-02-07T13:04:45.180Z,47.70
2018-02-07T13:07:13.511Z,45.27
2018-02-07T13:09:41.876Z,44.87
2018-02-07T13:12:10.231Z,43.87
2018-02-07T13:14:38.582Z,46.43
2018-02-07T13:17:06.907Z,46.80
2018-02-07T13:19:35.269Z,46.23
2018-02-07T13:22:03.610Z,46.33
2018-02-07T13:24:31.990Z,47.00
2018-02-07T13:27:00.329Z,44.67
2018-02-07T13:29:28.700Z,42.80
2018-02-07T13:31:57.053Z,45.17
2018-02-07T13:34:25.379Z,45.77
2018-02-07T13:36:53.737Z,45.17
2018-02-07T13:39:22.197Z,44.10
2018-02-07T13:41:50.639Z,45.00
2018-02-07T13:44:19.003Z,38.70
2018-02-07T13:46:47.327Z,40.53
2018-02-07T13:49:15.655Z,37.70
2018-02-07T13:51:44.092Z,38.67
2018-02-07T13:54:12.414Z,36.60
2018-02-07T13:56:40.765Z,39.00
2018-02-07T13:59:09.106Z,38.23
2018-02-07T14:01:37.444Z,38.17
2018-02-07T14:04:05.830Z,38.47
2018-02-07T14:06:34.222Z,42.20
2018-02-07T14:09:02.602Z,40.20
2018-02-07T14:11:30.952Z,39.37
2018-02-07T14:13:59.398Z,39.97
2018-02-07T14:16:27.736Z,42.23
2018-02-07T14:18:56.091Z,40.77
2018-02-07T14:21:24.415Z,38.90
2018-02-07T14:23:52.850Z,35.93
2018-02-07T14:26:22.165Z,36.90
2018-02-07T14:28:50.515Z,34.20
2018-02-07T14:31:18.837Z,35.90
2018-02-07T14:33:47.297Z,40.27
2018-02-07T14:36:15.637Z,43.47
2018-02-07T14:38:44.034Z,40.77
2018-02-07T14:41:12.354Z,44.10
2018-02-07T14:43:40.676Z,39.07
2018-02-07T14:46:09.030Z,41.60
2018-02-07T14:48:37.362Z,41.80
2018-02-07T14:51:05.762Z,41.20
2018-02-07T14:53:34.092Z,43.10
2018-02-07T14:56:02.454Z,43.00
2018-02-07T14:58:30.781Z,43.73
2018-02-07T15:00:59.121Z,45.80
2018-02-07T15:03:27.449Z,39.33
2018-02-07T15:05:55.821Z,43.87
2018-02-07T15:08:24.152Z,42.47
2018-02-07T15:10:52.498Z,43.13
2018-02-07T15:13:20.846Z,43.27
2018-02-07T15:15:49.171Z,42.47
2018-02-07T15:18:17.514Z,42.50
2018-02-07T15:20:45.844Z,43.67
2018-02-07T15:23:14.234Z,47.70
2018-02-07T15:25:42.561Z,45.00
2018-02-07T15:28:10.910Z,42.73
2018-02-07T15:30:39.326Z,43.10
2018-02-07T15:33:07.670Z,46.67
2018-02-07T15:35:36.019Z,44.83
2018-02-07T15:38:04.481Z,48.10
2018-02-07T15:40:32.823Z,45.67
2018-02-07T15:43:01.220Z,46.20
2018-02-07T15:45:29.567Z,45.03
2018-02-07T15:47:57.974Z,43.77
2018-02-07T15:50:26.320Z,44.50
2018-02-07T15:52:54.659Z,43.60
2018-02-07T15:55:23.139Z,46.60
2018-02-07T15:57:51.446Z,43.77
2018-02-07T16:00:19.810Z,46.47
2018-02-07T16:02:48.928Z,43.97
2018-02-07T16:05:17.278Z,42.57
2018-02-07T16:07:45.602Z,43.07
2018-02-07T16:10:13.992Z,43.10
2018-02-07T16:12:42.306Z,41.23
2018-02-07T16:15:10.706Z,42.43
2018-02-07T16:17:39.042Z,36.33
2018-02-07T16:20:07.414Z,39.70
2018-02-07T16:22:35.953Z,36.90
2018-02-07T16:25:04.329Z,40.10
2018-02-07T16:27:32.693Z,41.83
2018-02-07T16:30:01.123Z,42.40
2018-02-07T16:32:29.567Z,45.20
2018-02-07T16:34:57.907Z,42.73
2018-02-07T16:37:26.265Z,41.20
2018-02-07T16:39:54.610Z,41.70
2018-02-07T16:42:23.032Z,40.97
2018-02-07T16:44:51.403Z,40.17
2018-02-07T16:47:19.742Z,42.30
2018-02-07T16:49:48.080Z,39.57
2018-02-07T16:52:16.528Z,42.73
2018-02-07T16:54:44.908Z,43.43
2018-02-07T16:57:13.223Z,45.70
2018-02-07T16:59:41.590Z,40.90
2018-02-07T17:02:09.929Z,41.63
2018-02-07T17:04:38.313Z,44.50
2018-02-07T17:07:06.627Z,42.83
2018-02-07T17:09:34.993Z,43.00
2018-02-07T17:12:03.338Z,42.10
2018-02-07T17:14:31.750Z,39.70
2018-02-07T17:17:00.073Z,40.67
2018-02-07T17:19:28.475Z,43.87
2018-02-07T17:21:56.795Z,41.10
2018-02-07T17:24:25.152Z,44.60
2018-02-07T17:26:53.524Z,44.50
2018-02-07T17:29:21.846Z,44.60
2018-02-07T17:31:50.212Z,43.70
2018-02-07T17:34:18.554Z,43.90
2018-02-07T17:36:46.919Z,41.27
2018-02-07T17:39:15.259Z,44.07
2018-02-07T17:41:43.617Z,43.90
2018-02-07T17:44:12.063Z,46.30
2018-02-07T17:46:40.515Z,44.93
2018-02-07T17:49:08.891Z,46.80
2018-02-07T17:51:37.275Z,42.00
2018-02-07T17:54:05.687Z,45.20
2018-02-07T17:56:34.011Z,46.57
2018-02-07T17:59:02.371Z,47.90
2018-02-07T18:01:30.707Z,42.30
2018-02-07T18:03:59.078Z,43.10
2018-02-07T18:06:27.439Z,45.10
2018-02-07T18:08:55.810Z,41.40
2018-02-07T18:11:24.162Z,42.20
2018-02-07T18:13:52.604Z,41.73
2018-02-07T18:16:20.946Z,43.40
2018-02-07T18:18:49.310Z,43.17
2018-02-07T18:21:17.659Z,41.70
2018-02-07T18:23:46.001Z,44.20
2018-02-07T18:26:14.340Z,43.77
2018-02-07T18:28:42.709Z,45.03
2018-02-07T18:31:11.033Z,43.60
2018-02-07T18:33:39.387Z,44.37
2018-02-07T18:36:07.805Z,50.87
2018-02-07T18:38:36.125Z,49.00
2018-02-07T18:41:04.482Z,50.97
2018-02-07T18:43:32.939Z,46.33
2018-02-07T18:46:01.275Z,52.63
2018-02-07T18:48:29.617Z,49.10
2018-02-07T18:50:57.958Z,50.30
2018-02-07T18:53:26.286Z,51.20
2018-02-07T18:55:54.652Z,49.77
2018-02-07T18:58:23.022Z,49.47
2018-02-07T19:00:51.364Z,50.50
2018-02-07T19:03:19.699Z,50.43
2018-02-07T19:05:48.110Z,51.40
2018-02-07T19:08:16.475Z,53.67
2018-02-07T19:10:44.802Z,51.53
2018-02-07T19:13:13.175Z,52.17
2018-02-07T19:15:41.499Z,51.17
2018-02-07T19:18:09.877Z,52.90
2018-02-07T19:20:38.245Z,48.00
2018-02-07T19:23:06.609Z,53.27
2018-02-07T19:25:34.951Z,53.50
2018-02-07T19:28:03.303Z,51.07
2018-02-07T19:30:31.824Z,55.20
2018-02-07T19:33:00.172Z,52.63
2018-02-07T19:35:28.514Z,52.70
2018-02-07T19:37:57.027Z,53.47
2018-02-07T19:40:25.440Z,50.90
2018-02-07T19:42:53.761Z,66.90
2018-02-07T19:45:22.684Z,49.90
2018-02-07T19:47:51.009Z,49.37
2018-02-07T19:50:19.376Z,52.87
2018-02-07T19:52:47.699Z,51.10
2018-02-07T19:55:16.063Z,96.37
2018-02-07T19:57:44.401Z,57.93
2018-02-07T20:00:12.765Z,54.47
2018-02-07T20:02:42.922Z,51.47
2018-02-07T20:05:11.269Z,49.97
2018-02-07T20:07:39.598Z,52.00
2018-02-07T20:10:07.990Z,49.63
2018-02-07T20:12:36.310Z,51.30
2018-02-07T20:15:04.670Z,50.10
2018-02-07T20:17:33.010Z,49.73
2018-02-07T20:20:01.410Z,50.83
2018-02-07T20:22:29.754Z,47.50
2018-02-07T20:24:58.087Z,51.67
2018-02-07T20:27:26.438Z,45.87
2018-02-07T20:29:54.809Z,48.80
2018-02-07T20:32:23.177Z,49.70
2018-02-07T20:34:51.513Z,50.50
2018-02-07T20:37:19.875Z,81.20
2018-02-07T20:39:48.203Z,64.83
2018-02-07T20:42:16.567Z,59.67
2018-02-07T20:44:44.895Z,52.83
2018-02-07T20:47:13.298Z,55.17
2018-02-07T20:49:41.668Z,54.67
2018-02-07T20:52:09.987Z,51.10
2018-02-07T20:54:38.342Z,50.27
2018-02-07T20:57:06.699Z,48.23
2018-02-07T20:59:35.046Z,47.33
2018-02-07T21:02:03.436Z,51.17
2018-02-07T21:04:31.763Z,50.90
2018-02-07T21:07:01.268Z,50.20
2018-02-07T21:09:29.710Z,51.00
2018-02-07T21:11:58.018Z,52.47
2018-02-07T21:14:26.385Z,50.13
2018-02-07T21:16:54.714Z,48.57
2018-02-07T21:19:23.079Z,54.10
2018-02-07T21:21:51.649Z,47.67
2018-02-07T21:24:20.023Z,52.00
2018-02-07T21:26:48.409Z,49.80
2018-02-07T21:29:16.722Z,49.30
2018-02-07T21:31:45.085Z,48.97
2018-02-07T21:34:13.408Z,39.30
2018-02-07T21:36:41.773Z,50.40
2018-02-07T21:39:10.108Z,51.73
2018-02-07T21:41:38.498Z,49.77
2018-02-07T21:44:06.818Z,51.63
2018-02-07T21:46:35.145Z,47.80
2018-02-07T21:49:03.502Z,49.23
2018-02-07T21:51:31.832Z,48.33
2018-02-07T21:54:00.281Z,51.97
2018-02-07T21:56:28.620Z,65.53
2018-02-07T21:58:57.043Z,53.53
2018-02-07T22:01:25.375Z,48.83
2018-02-07T22:03:53.737Z,49.10
2018-02-07T22:06:22.075Z,46.90
2018-02-07T22:08:50.489Z,46.43
2018-02-07T22:11:18.822Z,47.70
2018-02-07T22:13:47.154Z,50.10
2018-02-07T22:16:15.594Z,44.87
2018-02-07T22:18:43.974Z,46.50
2018-02-07T22:21:12.342Z,45.83
2018-02-07T22:23:40.734Z,49.80
2018-02-07T22:26:09.160Z,47.43
2018-02-07T22:28:37.498Z,46.73
2018-02-07T22:31:05.858Z,44.37
2018-02-07T22:33:34.195Z,46.20
2018-02-07T22:36:02.670Z,44.50
2018-02-07T22:38:30.989Z,45.97
2018-02-07T22:40:59.677Z,46.30
2018-02-07T22:43:28.001Z,47.20
2018-02-07T22:45:56.374Z,44.30
2018-02-07T22:48:24.714Z,43.93
2018-02-07T22:50:53.073Z,41.60
2018-02-07T22:53:21.502Z,43.97
2018-02-07T22:55:49.895Z,47.17
2018-02-07T22:58:18.256Z,44.70
2018-02-07T23:00:46.567Z,43.47
2018-02-07T23:03:14.930Z,44.73
2018-02-07T23:05:43.270Z,77.13
2018-02-07T23:08:11.654Z,56.60
2018-02-07T23:10:39.966Z,43.10
2018-02-07T23:13:08.339Z,44.27
2018-02-07T23:15:36.661Z,44.13
2018-02-07T23:18:04.994Z,41.73
2018-02-07T23:20:33.415Z,45.70
2018-02-07T23:23:01.745Z,41.70
2018-02-07T23:25:30.192Z,41.70
2018-02-07T23:27:59.517Z,44.73
2018-02-07T23:30:27.852Z,41.97
2018-02-07T23:32:56.183Z,39.20
2018-02-07T23:35:24.546Z,38.73
2018-02-07T23:37:52.882Z,40.50
2018-02-07T23:40:21.288Z,45.67
2018-02-07T23:42:49.612Z,41.07
2018-02-07T23:45:17.932Z,41.00
2018-02-07T23:47:46.282Z,41.13
2018-02-07T23:50:14.614Z,42.10
2018-02-07T23:52:42.994Z,39.80
2018-02-07T23:55:11.374Z,39.03
2018-02-07T23:57:39.702Z,41.30
